Koningsborg — PDHI — position and weather

sailwx.info

Track history (hours):
 
Tides and Currents Weather Stations Pressure Air Temp Water Temp Dewpoint Dewpoint Depression Visibility Wind Speed Wind Dir Waves Ship Positions

Koningsborg

Last reported at 2018-May-27 11:27 UTC. Time now 2018-May-27 11:42 UTC.
Position N 56°05' E 012°37'.

Length 130 m; draft 7 m.

Type: Cargo ship. MMSI: 246388000.

Date/timePositionNaut miles runAvg speedWind from/ knotsBaromVisibWave heightAir tempDewpointWater temp
2018-May-27 11:27N 56°05' E 012°37'511.7
2018-May-27 11:00N 55°60' E 012°41'611.5
2018-May-27 10:30N 55°54' E 012°45'611.3
2018-May-27 10:00N 55°49' E 012°43'611.6
2018-May-27 09:30N 55°43' E 012°41'510.5
2018-May-27 09:00N 55°38' E 012°42'4 8.5
2018-May-27 08:30N 55°34' E 012°42'4 8.2
2018-May-27 08:00N 55°29' E 012°43'4 8.4
2018-May-27 07:30N 55°25' E 012°42'4 8.4
2018-May-27 07:00N 55°21' E 012°41'4 8.4
2018-May-27 06:30N 55°18' E 012°45'3511.6
2018-May-27 03:29N 55°14' E 013°46'811.8
2018-May-27 02:49N 55°14' E 013°59'511.9
2018-May-27 02:24N 55°14' E 014°08'810.7
2018-May-27 01:41N 55°17' E 014°21'211.7
2018-May-27 01:30N 55°18' E 014°23'611.8
2018-May-27 00:57N 55°23' E 014°30'611.7
2018-May-27 00:25N 55°28' E 014°38'511.6
2018-May-26 23:59N 55°30' E 014°45'611.6
2018-May-26 23:30N 55°33' E 014°54'611.7
2018-May-26 23:00N 55°36' E 015°03'611.8
2018-May-26 22:30N 55°39' E 015°12'611.6
2018-May-26 22:00N 55°42' E 015°21'611.6
2018-May-26 21:30N 55°45' E 015°30'611.7
2018-May-26 21:00N 55°48' E 015°39'611.8
2018-May-26 20:30N 55°51' E 015°48'611.9
2018-May-26 20:00N 55°54' E 015°57'611.7
2018-May-26 19:30N 55°56' E 016°06'611.7
2018-May-26 19:00N 55°59' E 016°15'611.6
2018-May-26 18:30N 56°02' E 016°24'611.8
2018-May-26 18:00N 56°05' E 016°33'611.8
2018-May-26 17:30N 56°08' E 016°42'711.4
2018-May-26 16:52N 56°15' E 016°49'411.8
2018-May-26 16:30N 56°19' E 016°51'11711.6
2018-May-26 06:27N 58°05' E 018°20'4011.9
2018-May-26 03:03N 58°40' E 018°59'111.7
2018-May-26 02:59N 58°41' E 019°00'611.7
2018-May-26 02:30N 58°45' E 019°05'611.4
2018-May-26 02:00N 58°50' E 019°11'611.4
2018-May-26 01:30N 58°55' E 019°16'611.5
2018-May-26 01:00N 59°00' E 019°22'611.4
2018-May-26 00:30N 59°05' E 019°27'611.7
2018-May-26 00:00N 59°10' E 019°33'611.4
2018-May-25 23:30N 59°15' E 019°39'611.6
2018-May-25 23:00N 59°20' E 019°44'611.7
2018-May-25 22:29N 59°26' E 019°50'611.8
2018-May-25 22:00N 59°31' E 019°55'611.2
2018-May-25 21:30N 59°36' E 019°57'611.5
2018-May-25 21:00N 59°41' E 019°50'611.7
2018-May-25 20:30N 59°45' E 019°43'611.7
2018-May-25 20:00N 59°50' E 019°36'611.8
2018-May-25 19:29N 59°54' E 019°28'611.6
2018-May-25 19:00N 59°59' E 019°20'611.5
2018-May-25 18:30N 60°03' E 019°13'611.7
2018-May-25 18:00N 60°07' E 019°05'510.9
2018-May-25 17:30N 60°12' E 019°01'611.1
2018-May-25 17:00N 60°18' E 018°60'611.1
2018-May-25 16:29N 60°24' E 018°59'  
2018-May-22 04:16N 61°17' E 018°08'  
Track history (hours):
 
Tides and Currents Weather Stations Pressure Air Temp Water Temp Dewpoint Dewpoint Depression Visibility Wind Speed Wind Dir Waves Ship Positions

Koningsborg

Last reported at 2018-May-27 11:27 UTC. Time now 2018-May-27 11:42 UTC.
Position N 56°05' E 012°37'.

Length 130 m; draft 7 m.

Type: Cargo ship. MMSI: 246388000.

Date/timePositionNaut miles runAvg speedWind from/ knotsBaromVisibWave heightAir tempDewpointWater temp
2018-May-27 11:27N 56°05' E 012°37'511.7
2018-May-27 11:00N 55°60' E 012°41'611.5
2018-May-27 10:30N 55°54' E 012°45'611.3
2018-May-27 10:00N 55°49' E 012°43'611.6
2018-May-27 09:30N 55°43' E 012°41'510.5
2018-May-27 09:00N 55°38' E 012°42'4 8.5
2018-May-27 08:30N 55°34' E 012°42'4 8.2
2018-May-27 08:00N 55°29' E 012°43'4 8.4
2018-May-27 07:30N 55°25' E 012°42'4 8.4
2018-May-27 07:00N 55°21' E 012°41'4 8.4
2018-May-27 06:30N 55°18' E 012°45'3511.6
2018-May-27 03:29N 55°14' E 013°46'811.8
2018-May-27 02:49N 55°14' E 013°59'511.9
2018-May-27 02:24N 55°14' E 014°08'810.7
2018-May-27 01:41N 55°17' E 014°21'211.7
2018-May-27 01:30N 55°18' E 014°23'611.8
2018-May-27 00:57N 55°23' E 014°30'611.7
2018-May-27 00:25N 55°28' E 014°38'511.6
2018-May-26 23:59N 55°30' E 014°45'611.6
2018-May-26 23:30N 55°33' E 014°54'611.7
2018-May-26 23:00N 55°36' E 015°03'611.8
2018-May-26 22:30N 55°39' E 015°12'611.6
2018-May-26 22:00N 55°42' E 015°21'611.6
2018-May-26 21:30N 55°45' E 015°30'611.7
2018-May-26 21:00N 55°48' E 015°39'611.8
2018-May-26 20:30N 55°51' E 015°48'611.9
2018-May-26 20:00N 55°54' E 015°57'611.7
2018-May-26 19:30N 55°56' E 016°06'611.7
2018-May-26 19:00N 55°59' E 016°15'611.6
2018-May-26 18:30N 56°02' E 016°24'611.8
2018-May-26 18:00N 56°05' E 016°33'611.8
2018-May-26 17:30N 56°08' E 016°42'711.4
2018-May-26 16:52N 56°15' E 016°49'411.8
2018-May-26 16:30N 56°19' E 016°51'11711.6
2018-May-26 06:27N 58°05' E 018°20'4011.9
2018-May-26 03:03N 58°40' E 018°59'111.7
2018-May-26 02:59N 58°41' E 019°00'611.7
2018-May-26 02:30N 58°45' E 019°05'611.4
2018-May-26 02:00N 58°50' E 019°11'611.4
2018-May-26 01:30N 58°55' E 019°16'611.5
2018-May-26 01:00N 59°00' E 019°22'611.4
2018-May-26 00:30N 59°05' E 019°27'611.7
2018-May-26 00:00N 59°10' E 019°33'611.4
2018-May-25 23:30N 59°15' E 019°39'611.6
2018-May-25 23:00N 59°20' E 019°44'611.7
2018-May-25 22:29N 59°26' E 019°50'611.8
2018-May-25 22:00N 59°31' E 019°55'611.2
2018-May-25 21:30N 59°36' E 019°57'611.5
2018-May-25 21:00N 59°41' E 019°50'611.7
2018-May-25 20:30N 59°45' E 019°43'611.7
2018-May-25 20:00N 59°50' E 019°36'611.8
2018-May-25 19:29N 59°54' E 019°28'611.6
2018-May-25 19:00N 59°59' E 019°20'611.5
2018-May-25 18:30N 60°03' E 019°13'611.7
2018-May-25 18:00N 60°07' E 019°05'510.9
2018-May-25 17:30N 60°12' E 019°01'611.1
2018-May-25 17:00N 60°18' E 018°60'611.1
2018-May-25 16:29N 60°24' E 018°59'  
2018-May-22 04:16N 61°17' E 018°08'  

Dump ship's entire track history